createdAt,value
2017-07-10T00:02:12.087Z,19.60
2017-07-10T00:04:39.671Z,22.20
2017-07-10T00:07:07.251Z,23.17
2017-07-10T00:09:34.810Z,23.43
2017-07-10T00:12:02.444Z,27.73
2017-07-10T00:14:30.037Z,32.50
2017-07-10T00:16:57.681Z,30.57
2017-07-10T00:19:25.394Z,31.50
2017-07-10T00:21:52.945Z,33.10
2017-07-10T00:24:20.652Z,33.17
2017-07-10T00:26:48.287Z,33.27
2017-07-10T00:32:01.127Z,37.77
2017-07-10T00:34:28.701Z,38.37
2017-07-10T00:36:57.262Z,43.97
2017-07-10T00:39:24.847Z,35.33
2017-07-10T00:41:53.199Z,38.83
2017-07-10T00:44:20.763Z,38.97
2017-07-10T00:46:48.506Z,43.20
2017-07-10T00:49:16.111Z,46.87
2017-07-10T00:51:43.689Z,45.97
2017-07-10T00:54:12.070Z,45.40
2017-07-10T00:56:40.411Z,46.47
2017-07-10T00:59:07.994Z,43.67
2017-07-10T01:01:35.558Z,50.70
2017-07-10T01:04:03.202Z,48.37
2017-07-10T01:06:30.777Z,50.77
2017-07-10T01:08:58.322Z,51.47
2017-07-10T01:11:25.913Z,52.07
2017-07-10T01:13:53.470Z,56.27
2017-07-10T01:16:21.023Z,56.70
2017-07-10T01:18:48.612Z,67.10
2017-07-10T01:21:16.931Z,58.47
2017-07-10T01:23:45.530Z,57.20
2017-07-10T01:26:13.116Z,60.20
2017-07-10T01:28:40.679Z,67.70
2017-07-10T01:31:08.254Z,68.57
2017-07-10T01:33:36.601Z,52.83
2017-07-10T01:36:04.335Z,54.27
2017-07-10T01:38:34.460Z,52.17
2017-07-10T01:41:02.050Z,54.07
2017-07-10T01:43:29.628Z,53.20
2017-07-10T01:45:57.189Z,56.73
2017-07-10T01:48:24.758Z,56.30
2017-07-10T01:50:52.311Z,56.20
2017-07-10T01:53:19.879Z,64.20
2017-07-10T01:55:47.523Z,70.57
2017-07-10T01:58:15.096Z,69.50
2017-07-10T02:00:42.659Z,59.00
2017-07-10T02:03:10.241Z,66.47
2017-07-10T02:05:37.826Z,59.60
2017-07-10T02:08:05.412Z,55.00
2017-07-10T02:10:33.074Z,59.37
2017-07-10T02:13:00.635Z,58.90
2017-07-10T02:15:28.209Z,62.77
2017-07-10T02:17:55.769Z,58.67
2017-07-10T02:20:23.331Z,59.30
2017-07-10T02:22:50.918Z,59.10
2017-07-10T02:25:18.658Z,58.50
2017-07-10T02:27:46.226Z,55.40
2017-07-10T02:30:13.818Z,58.40
2017-07-10T02:32:41.439Z,57.97
2017-07-10T02:35:09.021Z,68.03
2017-07-10T02:37:36.607Z,62.93
2017-07-10T02:40:04.193Z,64.57
2017-07-10T02:42:33.065Z,67.67
2017-07-10T02:45:00.642Z,66.67
2017-07-10T02:47:28.992Z,60.00
2017-07-10T02:49:56.546Z,60.00
2017-07-10T02:52:24.128Z,52.83
2017-07-10T02:54:51.695Z,54.10
2017-07-10T02:57:19.263Z,57.00
2017-07-10T02:59:46.838Z,63.83
2017-07-10T03:02:14.476Z,63.93
2017-07-10T03:04:42.041Z,64.30
2017-07-10T03:07:09.810Z,62.70
2017-07-10T03:09:37.542Z,66.40
2017-07-10T03:12:05.339Z,64.40
2017-07-10T03:14:32.930Z,69.70
2017-07-10T03:17:00.499Z,66.17
2017-07-10T03:19:28.114Z,70.83
2017-07-10T03:21:55.851Z,72.37
2017-07-10T03:24:23.412Z,69.93
2017-07-10T03:26:50.999Z,68.97
2017-07-10T03:29:18.555Z,61.17
2017-07-10T03:31:46.123Z,62.50
2017-07-10T03:34:13.698Z,60.97
2017-07-10T03:36:41.271Z,62.00
2017-07-10T03:39:08.847Z,63.37
2017-07-10T03:41:37.175Z,57.83
2017-07-10T03:44:04.747Z,67.57
2017-07-10T03:46:32.387Z,63.97
2017-07-10T03:48:59.959Z,66.50
2017-07-10T03:51:27.551Z,66.13
2017-07-10T03:53:55.111Z,64.17
2017-07-10T03:56:22.684Z,71.33
2017-07-10T03:58:50.263Z,72.77
2017-07-10T04:01:18.586Z,74.97
2017-07-10T04:03:46.162Z,72.53
2017-07-10T04:06:13.738Z,74.77
2017-07-10T04:08:41.318Z,75.27
2017-07-10T04:11:08.867Z,70.40
2017-07-10T04:13:36.422Z,74.30
2017-07-10T04:16:13.951Z,74.50
2017-07-10T04:18:42.270Z,74.83
2017-07-10T04:21:09.851Z,77.60
2017-07-10T04:23:37.535Z,74.47
2017-07-10T04:26:05.101Z,71.97
2017-07-10T04:28:32.671Z,71.93
2017-07-10T04:31:01.009Z,71.37
2017-07-10T04:33:28.575Z,68.80
2017-07-10T04:35:56.148Z,72.83
2017-07-10T04:38:23.725Z,67.43
2017-07-10T04:40:51.311Z,68.83
2017-07-10T04:43:18.892Z,68.27
2017-07-10T04:45:46.475Z,61.07
2017-07-10T04:48:14.034Z,63.40
2017-07-10T04:50:41.638Z,60.40
2017-07-10T04:53:09.190Z,59.77
2017-07-10T04:55:36.743Z,55.47
2017-07-10T04:58:04.315Z,58.00
2017-07-10T05:00:31.916Z,56.37
2017-07-10T05:03:00.265Z,57.13
2017-07-10T05:05:27.836Z,57.50
2017-07-10T05:07:55.754Z,57.60
2017-07-10T05:10:23.571Z,58.47
2017-07-10T05:12:51.264Z,58.70
2017-07-10T05:15:18.837Z,62.10
2017-07-10T05:17:46.379Z,63.37
2017-07-10T05:20:13.962Z,60.37
2017-07-10T05:22:41.526Z,61.47
2017-07-10T05:25:09.111Z,60.17
2017-07-10T05:27:36.697Z,63.90
2017-07-10T05:30:04.263Z,62.70
2017-07-10T05:32:31.834Z,61.30
2017-07-10T05:34:59.498Z,64.93
2017-07-10T05:37:27.078Z,66.53
2017-07-10T05:39:55.415Z,65.57
2017-07-10T05:42:22.992Z,66.70
2017-07-10T05:44:51.003Z,66.40
2017-07-10T05:47:18.594Z,73.20
2017-07-10T05:49:46.162Z,67.77
2017-07-10T05:52:13.743Z,67.60
2017-07-10T05:54:41.381Z,66.97
2017-07-10T05:57:08.966Z,67.17
2017-07-10T05:59:36.556Z,65.10
2017-07-10T06:02:04.103Z,65.57
2017-07-10T06:04:31.677Z,64.50
2017-07-10T06:06:59.249Z,66.10
2017-07-10T06:09:27.574Z,67.00
2017-07-10T06:11:55.135Z,66.53
2017-07-10T06:14:22.728Z,71.10
2017-07-10T06:16:50.306Z,67.37
2017-07-10T06:19:17.908Z,69.20
2017-07-10T06:21:45.479Z,65.37
2017-07-10T06:24:13.050Z,62.97
2017-07-10T06:26:40.609Z,68.73
2017-07-10T06:29:08.190Z,67.57
2017-07-10T06:31:35.792Z,60.87
2017-07-10T06:34:04.138Z,67.57
2017-07-10T06:36:31.739Z,68.63
2017-07-10T06:39:00.255Z,67.70
2017-07-10T06:41:27.822Z,68.90
2017-07-10T06:43:55.402Z,68.80
2017-07-10T06:46:22.996Z,65.77
2017-07-10T06:48:50.616Z,69.43
2017-07-10T06:51:18.185Z,71.27
2017-07-10T06:53:45.883Z,71.63
2017-07-10T06:56:13.450Z,66.83
2017-07-10T06:58:41.059Z,67.97
2017-07-10T07:01:08.663Z,71.70
2017-07-10T07:03:36.234Z,73.37
2017-07-10T07:06:03.823Z,69.17
2017-07-10T07:08:31.389Z,68.30
2017-07-10T07:10:58.974Z,69.67
2017-07-10T07:13:26.551Z,63.63
2017-07-10T07:15:54.145Z,66.97
2017-07-10T07:18:21.894Z,65.13
2017-07-10T07:20:49.693Z,59.20
2017-07-10T07:23:18.042Z,55.10
2017-07-10T07:25:45.689Z,55.73
2017-07-10T07:28:14.338Z,51.90
2017-07-10T07:30:41.935Z,55.10
2017-07-10T07:33:09.561Z,53.50
2017-07-10T07:35:37.159Z,51.93
2017-07-10T07:38:04.762Z,53.87
2017-07-10T07:40:32.472Z,53.37
2017-07-10T07:43:00.149Z,50.50
2017-07-10T07:45:27.742Z,51.07
2017-07-10T07:47:55.471Z,51.90
2017-07-10T07:50:23.062Z,48.80
2017-07-10T07:52:50.701Z,49.13
2017-07-10T07:55:19.008Z,45.27
2017-07-10T07:57:46.599Z,41.73
2017-07-10T08:00:14.951Z,38.23
2017-07-10T08:02:42.548Z,40.10
2017-07-10T08:05:10.909Z,39.67
2017-07-10T08:07:38.519Z,36.63
2017-07-10T08:10:06.097Z,37.53
2017-07-10T08:12:33.673Z,38.13
2017-07-10T08:15:01.271Z,36.63
2017-07-10T08:17:28.897Z,37.97
2017-07-10T08:19:56.566Z,39.27
2017-07-10T08:22:24.163Z,39.70
2017-07-10T08:24:52.524Z,40.80
2017-07-10T08:27:20.131Z,39.03
2017-07-10T08:29:47.725Z,38.63
2017-07-10T08:32:15.324Z,37.13
2017-07-10T08:34:42.983Z,36.13
2017-07-10T08:37:10.625Z,36.37
2017-07-10T08:39:38.196Z,33.83
2017-07-10T08:42:05.860Z,33.77
2017-07-10T08:44:33.434Z,34.07
2017-07-10T08:47:01.016Z,31.13
2017-07-10T08:49:29.381Z,30.67
2017-07-10T08:51:56.937Z,31.20
2017-07-10T08:54:24.501Z,27.60
2017-07-10T08:56:52.863Z,27.63
2017-07-10T08:59:20.482Z,25.93
2017-07-10T09:01:48.064Z,27.00
2017-07-10T09:04:15.623Z,27.77
2017-07-10T09:06:43.181Z,25.83
2017-07-10T09:09:10.754Z,25.70
2017-07-10T09:11:38.360Z,25.20
2017-07-10T09:14:05.944Z,24.17
2017-07-10T09:16:34.284Z,24.30
2017-07-10T09:19:01.988Z,22.50
2017-07-10T09:21:30.339Z,25.33
2017-07-10T09:23:57.895Z,18.90
2017-07-10T09:26:25.485Z,17.97
2017-07-10T09:28:53.051Z,17.17
2017-07-10T09:31:21.482Z,18.10
2017-07-10T09:33:49.194Z,18.77
2017-07-10T09:36:16.744Z,18.17
2017-07-10T09:38:44.327Z,19.27
2017-07-10T09:41:12.671Z,17.50
2017-07-10T09:43:40.222Z,17.63
2017-07-10T09:46:07.817Z,15.20
2017-07-10T09:48:35.393Z,15.53
2017-07-10T09:51:03.010Z,15.03
2017-07-10T09:53:30.579Z,12.97
2017-07-10T09:55:58.158Z,14.03
2017-07-10T09:58:25.745Z,13.40
2017-07-10T10:00:53.311Z,13.37
2017-07-10T10:03:20.879Z,13.87
2017-07-10T10:05:49.223Z,14.00
2017-07-10T10:08:17.065Z,13.80
2017-07-10T10:10:44.636Z,12.43
2017-07-10T10:13:12.203Z,12.17
2017-07-10T10:15:39.810Z,13.47
2017-07-10T10:18:07.408Z,13.73
2017-07-10T10:20:34.962Z,13.47
2017-07-10T10:23:02.546Z,14.37
2017-07-10T10:25:30.123Z,13.93
2017-07-10T10:27:57.708Z,13.70
2017-07-10T10:30:25.297Z,14.07
2017-07-10T10:32:53.686Z,14.17
2017-07-10T10:35:22.063Z,14.53
2017-07-10T10:37:50.409Z,13.77
2017-07-10T10:40:17.991Z,14.73
2017-07-10T10:42:45.555Z,12.63
2017-07-10T10:45:14.077Z,12.87
2017-07-10T10:47:41.654Z,11.97
2017-07-10T10:50:09.234Z,12.77
2017-07-10T10:52:36.947Z,11.67
2017-07-10T10:55:04.528Z,11.73
2017-07-10T10:57:32.123Z,12.77
2017-07-10T10:59:59.684Z,11.03
2017-07-10T11:02:27.276Z,10.97
2017-07-10T11:04:54.853Z,10.40
2017-07-10T11:07:22.493Z,11.00
2017-07-10T11:09:50.113Z,10.83
2017-07-10T11:12:17.676Z,9.03
2017-07-10T11:14:45.260Z,8.17
2017-07-10T11:17:12.831Z,7.90
2017-07-10T11:19:40.387Z,8.70
2017-07-10T11:22:07.970Z,10.30
2017-07-10T11:24:35.573Z,8.40
2017-07-10T11:27:03.259Z,9.03
2017-07-10T11:29:30.848Z,9.67
2017-07-10T11:31:58.427Z,8.10
2017-07-10T11:34:26.025Z,8.77
2017-07-10T11:36:53.597Z,8.17
2017-07-10T11:39:21.193Z,8.27
2017-07-10T11:41:48.798Z,10.00
2017-07-10T11:44:17.160Z,8.00
2017-07-10T11:46:44.776Z,9.70
2017-07-10T11:49:12.348Z,10.10
2017-07-10T11:51:39.917Z,8.30
2017-07-10T11:54:07.486Z,8.47
2017-07-10T11:56:35.066Z,8.70
2017-07-10T11:59:02.645Z,9.77
2017-07-10T12:01:30.252Z,7.80
2017-07-10T12:03:57.806Z,7.27
2017-07-10T12:06:25.371Z,7.97
2017-07-10T12:08:52.963Z,6.90
2017-07-10T12:11:21.472Z,7.80
2017-07-10T12:13:49.071Z,7.80
2017-07-10T12:16:17.413Z,7.67
2017-07-10T12:18:45.008Z,7.63
2017-07-10T12:21:12.666Z,6.70
2017-07-10T12:23:41.004Z,7.10
2017-07-10T12:26:08.689Z,7.70
2017-07-10T12:28:36.228Z,7.60
2017-07-10T12:31:03.822Z,6.93
2017-07-10T12:33:31.428Z,6.93
2017-07-10T12:35:59.288Z,6.80
2017-07-10T12:38:26.864Z,8.07
2017-07-10T12:40:54.413Z,7.40
2017-07-10T12:43:22.099Z,5.80
2017-07-10T12:45:49.659Z,7.20
2017-07-10T12:48:17.230Z,8.17
2017-07-10T12:50:44.788Z,7.00
2017-07-10T12:53:12.450Z,6.80
2017-07-10T12:55:40.062Z,5.60
2017-07-10T12:58:07.625Z,6.47
2017-07-10T13:00:35.203Z,6.03
2017-07-10T13:03:03.613Z,5.03
2017-07-10T13:05:31.187Z,5.70
2017-07-10T13:07:58.783Z,6.03
2017-07-10T13:10:26.406Z,5.10
2017-07-10T13:12:53.968Z,5.23
2017-07-10T13:15:21.550Z,5.70
2017-07-10T13:17:49.137Z,5.47
2017-07-10T13:20:16.781Z,6.33
2017-07-10T13:22:44.358Z,5.30
2017-07-10T13:25:11.918Z,5.93
2017-07-10T13:27:39.505Z,5.43
2017-07-10T13:30:07.075Z,5.87
2017-07-10T13:32:35.432Z,4.97
2017-07-10T13:35:03.150Z,4.77
2017-07-10T13:37:30.817Z,5.43
2017-07-10T13:39:58.409Z,4.27
2017-07-10T13:42:25.971Z,5.10
2017-07-10T13:44:53.698Z,4.10
2017-07-10T13:47:22.570Z,4.17
2017-07-10T13:49:50.138Z,3.97
2017-07-10T13:52:17.748Z,3.93
2017-07-10T13:54:45.328Z,3.70
2017-07-10T13:57:12.912Z,3.80
2017-07-10T13:59:40.490Z,3.50
2017-07-10T14:02:08.812Z,3.40
2017-07-10T14:04:36.398Z,3.40
2017-07-10T14:07:03.962Z,3.73
2017-07-10T14:09:31.556Z,3.50
2017-07-10T14:11:59.120Z,2.80
2017-07-10T14:14:27.460Z,3.90
2017-07-10T14:16:55.063Z,2.70
2017-07-10T14:19:22.754Z,3.20
2017-07-10T14:21:50.350Z,3.10
2017-07-10T14:24:17.910Z,3.40
2017-07-10T14:26:45.471Z,3.10
2017-07-10T14:29:13.094Z,2.87
2017-07-10T14:31:41.458Z,2.83
2017-07-10T14:34:09.799Z,3.07
2017-07-10T14:36:37.358Z,3.10
2017-07-10T14:39:04.953Z,4.03
2017-07-10T14:41:32.587Z,3.90
2017-07-10T14:44:00.171Z,4.80
2017-07-10T14:46:27.746Z,3.70
2017-07-10T14:48:55.296Z,3.63
2017-07-10T14:51:22.879Z,3.23
2017-07-10T14:53:51.274Z,3.87
2017-07-10T14:56:19.655Z,3.53
2017-07-10T14:58:47.235Z,4.10
2017-07-10T15:01:14.786Z,5.87
2017-07-10T15:03:42.498Z,6.40
2017-07-10T15:06:10.253Z,7.10
2017-07-10T15:08:37.900Z,6.70
2017-07-10T15:11:05.489Z,6.40
2017-07-10T15:13:33.053Z,7.50
2017-07-10T15:16:00.640Z,5.40
2017-07-10T15:18:28.263Z,6.30
2017-07-10T15:20:55.884Z,6.53
2017-07-10T15:23:24.359Z,6.97
2017-07-10T15:25:52.836Z,7.50
2017-07-10T15:28:20.560Z,5.40
2017-07-10T15:30:48.275Z,6.53
2017-07-10T15:33:15.855Z,6.10
2017-07-10T15:35:43.594Z,6.87
2017-07-10T15:38:11.298Z,5.67
2017-07-10T15:40:39.037Z,5.90
2017-07-10T15:43:06.729Z,5.50
2017-07-10T15:45:34.907Z,6.17
2017-07-10T15:48:03.222Z,6.20
2017-07-10T15:50:30.943Z,6.80
2017-07-10T15:52:59.307Z,6.20
2017-07-10T15:55:27.837Z,6.20
2017-07-10T15:57:55.534Z,6.57
2017-07-10T16:00:23.310Z,6.70
2017-07-10T16:02:50.976Z,6.60
2017-07-10T16:05:18.723Z,7.53
2017-07-10T16:07:47.524Z,6.10
2017-07-10T16:10:15.189Z,6.40
2017-07-10T16:12:42.959Z,5.90
2017-07-10T16:15:10.749Z,6.60
2017-07-10T16:17:38.401Z,5.90
2017-07-10T16:20:06.022Z,5.50
2017-07-10T16:22:33.681Z,5.77
2017-07-10T16:25:02.211Z,6.53
2017-07-10T16:27:29.861Z,6.00
2017-07-10T16:29:58.314Z,5.80
2017-07-10T16:32:25.939Z,6.10
2017-07-10T16:34:53.722Z,6.13
2017-07-10T16:37:21.423Z,8.17
2017-07-10T16:39:49.857Z,5.23
2017-07-10T16:42:17.504Z,6.10
2017-07-10T16:44:45.398Z,7.00
2017-07-10T16:47:13.030Z,8.03
2017-07-10T16:49:40.586Z,6.97
2017-07-10T16:52:08.158Z,6.00
2017-07-10T16:54:35.751Z,6.90
2017-07-10T16:57:03.324Z,6.00
2017-07-10T16:59:30.903Z,6.03
2017-07-10T17:01:58.463Z,6.00
2017-07-10T17:04:26.121Z,5.60
2017-07-10T17:06:53.708Z,6.77
2017-07-10T17:09:22.042Z,4.90
2017-07-10T17:11:49.636Z,5.60
2017-07-10T17:14:17.983Z,5.33
2017-07-10T17:16:45.535Z,4.70
2017-07-10T17:19:13.117Z,3.80
2017-07-10T17:21:40.699Z,4.63
2017-07-10T17:24:08.315Z,4.00
2017-07-10T17:26:35.922Z,3.30
2017-07-10T17:29:03.488Z,2.90
2017-07-10T17:31:31.067Z,3.07
2017-07-10T17:33:59.418Z,2.83
2017-07-10T17:36:27.005Z,3.83
2017-07-10T17:38:55.364Z,2.70
2017-07-10T17:41:22.944Z,3.43
2017-07-10T17:43:51.304Z,2.90
2017-07-10T17:46:18.932Z,3.20
2017-07-10T17:48:46.495Z,3.37
2017-07-10T17:51:14.111Z,2.90
2017-07-10T17:53:41.700Z,2.67
2017-07-10T17:56:09.283Z,2.60
2017-07-10T17:58:36.877Z,2.63
2017-07-10T18:01:04.488Z,3.80
2017-07-10T18:03:32.179Z,2.33
2017-07-10T18:05:59.765Z,2.37
2017-07-10T18:08:27.539Z,2.33
2017-07-10T18:10:55.097Z,2.43
2017-07-10T18:13:22.677Z,3.37
2017-07-10T18:15:50.271Z,2.97
2017-07-10T18:18:17.836Z,2.47
2017-07-10T18:20:45.457Z,2.90
2017-07-10T18:23:13.028Z,2.70
2017-07-10T18:25:42.600Z,2.33
2017-07-10T18:28:10.163Z,2.40
2017-07-10T18:30:37.743Z,2.00
2017-07-10T18:33:05.328Z,2.20
2017-07-10T18:35:33.730Z,6.60
2017-07-10T18:38:02.105Z,4.20
2017-07-10T18:40:30.485Z,2.10
2017-07-10T18:42:58.860Z,2.23
2017-07-10T18:45:26.488Z,2.40
2017-07-10T18:47:54.064Z,2.37
2017-07-10T18:50:21.645Z,3.20
2017-07-10T18:52:49.995Z,2.03
2017-07-10T18:55:17.618Z,2.03
2017-07-10T18:57:45.253Z,1.83
2017-07-10T19:00:13.663Z,2.40
2017-07-10T19:02:41.292Z,1.83
2017-07-10T19:05:08.884Z,1.83
2017-07-10T19:07:36.655Z,1.70
2017-07-10T19:10:04.229Z,1.77
2017-07-10T19:12:31.813Z,1.60
2017-07-10T19:14:59.563Z,1.70
2017-07-10T19:17:27.224Z,1.63
2017-07-10T19:19:54.812Z,1.60
2017-07-10T19:22:22.415Z,1.67
2017-07-10T19:24:50.857Z,1.70
2017-07-10T19:27:19.149Z,1.50
2017-07-10T19:29:46.735Z,1.80
2017-07-10T19:32:15.086Z,1.97
2017-07-10T19:34:42.690Z,1.97
2017-07-10T19:37:11.089Z,2.10
2017-07-10T19:39:38.683Z,1.70
2017-07-10T19:42:06.310Z,1.87
2017-07-10T19:44:33.942Z,1.90
2017-07-10T19:47:02.274Z,1.70
2017-07-10T19:49:30.025Z,1.67
2017-07-10T19:51:57.607Z,1.80
2017-07-10T19:54:25.192Z,1.67
2017-07-10T19:56:52.775Z,1.80
2017-07-10T19:59:20.478Z,1.70
2017-07-10T20:01:48.106Z,1.80
2017-07-10T20:04:15.690Z,1.50
2017-07-10T20:06:43.263Z,1.90
2017-07-10T20:09:10.942Z,1.60
2017-07-10T20:11:38.507Z,1.90
2017-07-10T20:14:06.094Z,1.83
2017-07-10T20:16:33.670Z,1.97
2017-07-10T20:19:01.259Z,2.97
2017-07-10T20:21:29.609Z,2.20
2017-07-10T20:23:59.348Z,2.43
2017-07-10T20:26:26.954Z,1.93
2017-07-10T20:28:54.557Z,2.07
2017-07-10T20:31:22.396Z,1.80
2017-07-10T20:33:53.660Z,2.00
2017-07-10T20:36:22.771Z,2.07
2017-07-10T20:38:50.478Z,1.93
2017-07-10T20:41:18.137Z,2.10
2017-07-10T20:43:46.457Z,1.93
2017-07-10T20:46:14.126Z,2.23
2017-07-10T20:48:42.215Z,2.63
2017-07-10T20:51:10.591Z,2.20
2017-07-10T20:53:38.229Z,2.33
2017-07-10T20:56:05.820Z,2.20
2017-07-10T20:58:33.384Z,1.33
2017-07-10T21:01:01.200Z,2.30
2017-07-10T21:03:28.922Z,1.93
2017-07-10T21:05:56.525Z,1.83
2017-07-10T21:08:24.095Z,1.90
2017-07-10T21:10:51.658Z,2.30
2017-07-10T21:13:19.263Z,2.40
2017-07-10T21:15:46.835Z,1.83
2017-07-10T21:18:16.771Z,1.63
2017-07-10T21:20:44.362Z,1.53
2017-07-10T21:23:11.945Z,1.70
2017-07-10T21:25:39.508Z,2.30
2017-07-10T21:28:07.082Z,2.23
2017-07-10T21:30:35.447Z,2.40
2017-07-10T21:33:03.026Z,2.13
2017-07-10T21:35:31.331Z,1.97
2017-07-10T21:37:58.907Z,1.70
2017-07-10T21:40:26.493Z,2.00
2017-07-10T21:42:54.040Z,2.50
2017-07-10T21:45:22.033Z,2.10
2017-07-10T21:47:49.594Z,2.13
2017-07-10T21:50:17.166Z,2.27
2017-07-10T21:52:44.791Z,1.80
2017-07-10T21:55:12.467Z,1.50
2017-07-10T21:57:40.058Z,2.27
2017-07-10T22:00:07.617Z,2.17
2017-07-10T22:02:35.255Z,1.63
2017-07-10T22:05:02.814Z,2.10
2017-07-10T22:07:30.473Z,2.20
2017-07-10T22:09:58.843Z,2.93
2017-07-10T22:12:26.415Z,2.53
2017-07-10T22:14:54.002Z,2.37
2017-07-10T22:17:21.589Z,2.50
2017-07-10T22:19:49.922Z,2.03
2017-07-10T22:22:17.464Z,2.27
2017-07-10T22:24:45.047Z,2.50
2017-07-10T22:27:12.612Z,2.60
2017-07-10T22:29:40.160Z,2.60
2017-07-10T22:32:07.770Z,2.50
2017-07-10T22:34:35.339Z,1.77
2017-07-10T22:37:02.915Z,2.37
2017-07-10T22:39:30.548Z,2.33
2017-07-10T22:41:58.886Z,2.37
2017-07-10T22:44:26.454Z,2.30
2017-07-10T22:46:54.190Z,2.53
2017-07-10T22:49:22.015Z,2.13
2017-07-10T22:51:49.809Z,2.00
2017-07-10T22:54:17.550Z,2.53
2017-07-10T22:56:46.024Z,2.57
2017-07-10T22:59:13.851Z,2.90
2017-07-10T23:01:41.488Z,2.50
2017-07-10T23:04:09.277Z,2.53
2017-07-10T23:06:36.948Z,2.07
2017-07-10T23:09:04.657Z,2.53
2017-07-10T23:11:32.340Z,2.53
2017-07-10T23:14:00.862Z,2.00
2017-07-10T23:16:28.633Z,2.73
2017-07-10T23:18:57.482Z,2.57
2017-07-10T23:21:26.069Z,2.63
2017-07-10T23:23:53.927Z,2.50
2017-07-10T23:26:21.715Z,3.27
2017-07-10T23:28:49.567Z,2.30
2017-07-10T23:31:18.003Z,2.80
2017-07-10T23:33:45.592Z,2.90
2017-07-10T23:36:13.208Z,2.73
2017-07-10T23:38:40.795Z,2.80
2017-07-10T23:41:08.367Z,2.87
2017-07-10T23:43:35.959Z,3.00
2017-07-10T23:46:04.275Z,3.30
2017-07-10T23:48:31.956Z,3.03
2017-07-10T23:50:59.520Z,3.13
2017-07-10T23:53:27.095Z,3.40
2017-07-10T23:55:54.643Z,3.23
2017-07-10T23:58:22.211Z,3.33
